createdAt,value
2022-11-04T00:02:04.395Z,97896.22
2022-11-04T00:04:32.043Z,97903.72
2022-11-04T00:06:59.253Z,97907.09
2022-11-04T00:09:30.574Z,97897.38
2022-11-04T00:12:17.217Z,97890.44
2022-11-04T00:14:44.537Z,97880.16
2022-11-04T00:17:19.194Z,97895.19
2022-11-04T00:20:09.008Z,97888.84
2022-11-04T00:22:56.757Z,97886.16
2022-11-04T00:25:42.715Z,97882.44
2022-11-04T00:28:38.761Z,97897.69
2022-11-04T00:31:27.610Z,97892.88
2022-11-04T00:33:58.552Z,97887.06
2022-11-04T00:36:26.868Z,97883.81
2022-11-04T00:38:54.446Z,97886.22
2022-11-04T00:41:29.840Z,97888.94
2022-11-04T00:44:04.381Z,97892.53
2022-11-04T00:46:34.962Z,97887.13
2022-11-04T00:49:02.281Z,97894.50
2022-11-04T00:51:29.794Z,97900.53
2022-11-04T00:54:02.342Z,97894.63
2022-11-04T00:56:30.064Z,97905.63
2022-11-04T00:59:00.110Z,97903.53
2022-11-04T01:01:27.719Z,97905.41
2022-11-04T01:03:56.634Z,97907.53
2022-11-04T01:06:26.968Z,97904.69
2022-11-04T01:09:01.365Z,97906.63
2022-11-04T01:11:30.593Z,97907.84
2022-11-04T01:13:58.864Z,97897.53
2022-11-04T01:16:33.513Z,97902.06
2022-11-04T01:19:01.387Z,97913.41
2022-11-04T01:21:29.098Z,97924.00
2022-11-04T01:23:56.638Z,97927.63
2022-11-04T01:26:27.628Z,97928.47
2022-11-04T01:28:56.830Z,97934.81
2022-11-04T01:31:30.633Z,97932.31
2022-11-04T01:33:59.662Z,97924.94
2022-11-04T01:36:28.011Z,97919.31
2022-11-04T01:38:57.179Z,97920.78
2022-11-04T01:41:32.288Z,97932.22
2022-11-04T01:44:51.380Z,97928.59
2022-11-04T01:47:41.800Z,97938.56
2022-11-04T01:50:20.854Z,97931.03
2022-11-04T01:52:53.562Z,97918.25
2022-11-04T01:55:33.112Z,97913.72
2022-11-04T01:58:09.627Z,97918.34
2022-11-04T02:00:40.843Z,97924.44
2022-11-04T02:03:49.244Z,97927.56
2022-11-04T02:06:19.816Z,97919.47
2022-11-04T02:08:49.395Z,97905.78
2022-11-04T02:11:35.670Z,97897.41
2022-11-04T02:14:03.390Z,97901.63
2022-11-04T02:16:45.523Z,97899.41
2022-11-04T02:19:46.897Z,97907.13
2022-11-04T02:22:54.064Z,97913.88
2022-11-04T02:26:16.889Z,97913.06
2022-11-04T02:29:23.632Z,97922.78
2022-11-04T02:32:14.471Z,97920.56
2022-11-04T02:35:11.527Z,97927.16
2022-11-04T02:37:41.738Z,97917.22
2022-11-04T02:40:37.759Z,97916.13
2022-11-04T02:44:07.089Z,97904.19
2022-11-04T02:47:01.355Z,97912.25
2022-11-04T02:49:58.483Z,97929.69
2022-11-04T02:52:58.059Z,97927.25
2022-11-04T02:55:50.272Z,97909.97
2022-11-04T02:58:39.564Z,97916.81
2022-11-04T03:01:13.890Z,97907.16
2022-11-04T03:03:52.106Z,97920.59
2022-11-04T03:06:24.718Z,97906.09
2022-11-04T03:08:54.749Z,97911.13
2022-11-04T03:11:27.569Z,97910.81
2022-11-04T03:14:12.303Z,97912.44
2022-11-04T03:17:00.058Z,97918.63
2022-11-04T03:19:58.918Z,97927.84
2022-11-04T03:22:30.719Z,97935.06
2022-11-04T03:25:06.701Z,97930.06
2022-11-04T03:28:25.263Z,97941.50
2022-11-04T03:31:04.641Z,97949.03
2022-11-04T03:33:50.956Z,97945.66
2022-11-04T03:36:22.942Z,97955.66
2022-11-04T03:38:52.696Z,97952.91
2022-11-04T03:41:55.700Z,97950.13
2022-11-04T03:44:25.074Z,97952.63
2022-11-04T03:46:54.101Z,97958.47
2022-11-04T03:49:25.144Z,97958.75
2022-11-04T03:51:52.844Z,97967.94
2022-11-04T03:54:21.183Z,97972.34
2022-11-04T03:56:54.850Z,97981.50
2022-11-04T04:00:16.649Z,97972.31
2022-11-04T04:03:29.932Z,97974.81
2022-11-04T04:06:19.395Z,97970.69
2022-11-04T04:09:34.279Z,97976.25
2022-11-04T04:12:07.813Z,97977.06
2022-11-04T04:14:50.296Z,97985.72
2022-11-04T04:17:54.884Z,97974.06
2022-11-04T04:20:31.866Z,97973.19
2022-11-04T04:23:29.920Z,97959.56
2022-11-04T04:26:22.088Z,97957.06
2022-11-04T04:28:53.538Z,97965.13
2022-11-04T04:31:44.892Z,97977.06
2022-11-04T04:34:13.161Z,97987.34
2022-11-04T04:37:02.983Z,97985.16
2022-11-04T04:40:03.346Z,97992.13
2022-11-04T04:42:54.946Z,97984.91
2022-11-04T04:45:38.289Z,97992.88
2022-11-04T04:48:10.032Z,97987.59
2022-11-04T04:50:48.654Z,97983.50
2022-11-04T04:53:16.260Z,97963.97
2022-11-04T04:55:46.870Z,97962.56
2022-11-04T04:58:14.305Z,97961.44
2022-11-04T05:00:41.596Z,97945.03
2022-11-04T05:03:09.152Z,97919.06
2022-11-04T05:05:36.683Z,97908.53
2022-11-04T05:08:08.803Z,97906.41
2022-11-04T05:10:36.466Z,97903.88
2022-11-04T05:13:22.601Z,97905.00
2022-11-04T05:15:50.220Z,97893.38
2022-11-04T05:18:20.563Z,97907.28
2022-11-04T05:20:47.961Z,97902.25
2022-11-04T05:23:18.198Z,97914.50
2022-11-04T05:25:45.526Z,97924.22
2022-11-04T05:28:15.299Z,97928.94
2022-11-04T05:30:42.861Z,97923.34
2022-11-04T05:33:10.562Z,97928.63
2022-11-04T05:35:38.277Z,97922.47
2022-11-04T05:38:05.693Z,97933.81
2022-11-04T05:40:32.860Z,97941.31
2022-11-04T05:43:01.380Z,97943.88
2022-11-04T05:45:29.801Z,97952.44
2022-11-04T05:48:03.598Z,97949.09
2022-11-04T05:50:33.035Z,97940.44
2022-11-04T05:53:01.258Z,97936.00
2022-11-04T05:55:29.125Z,97927.00
2022-11-04T05:57:58.097Z,97916.75
2022-11-04T06:00:27.827Z,97917.06
2022-11-04T06:02:58.319Z,97908.72
2022-11-04T06:05:27.523Z,97918.19
2022-11-04T06:07:56.375Z,97930.41
2022-11-04T06:10:24.794Z,97930.00
2022-11-04T06:12:51.983Z,97936.47
2022-11-04T06:15:44.689Z,97940.66
2022-11-04T06:18:11.911Z,97938.09
2022-11-04T06:20:39.094Z,97944.34
2022-11-04T06:23:06.255Z,97958.09
2022-11-04T06:25:33.400Z,97985.41
2022-11-04T06:28:00.561Z,97989.56
2022-11-04T06:30:27.707Z,97983.88
2022-11-04T06:32:54.902Z,97976.13
2022-11-04T06:35:22.124Z,97976.09
2022-11-04T06:37:49.552Z,97980.28
2022-11-04T06:40:16.817Z,97986.56
2022-11-04T06:42:45.039Z,97983.03
2022-11-04T06:45:12.435Z,97977.97
2022-11-04T06:47:39.852Z,97975.59
2022-11-04T06:50:07.862Z,97980.47
2022-11-04T06:52:41.055Z,97979.63
2022-11-04T06:55:10.610Z,97983.50
2022-11-04T06:57:37.834Z,97977.38
2022-11-04T07:00:07.251Z,97975.97
2022-11-04T07:02:34.750Z,97976.47
2022-11-04T07:05:02.003Z,97971.72
2022-11-04T07:07:29.678Z,97968.03
2022-11-04T07:10:21.734Z,97961.19
2022-11-04T07:12:49.109Z,97964.25
2022-11-04T07:15:27.488Z,97952.94
2022-11-04T07:17:55.273Z,97944.38
2022-11-04T07:20:22.523Z,97942.22
2022-11-04T07:22:49.766Z,97943.50
2022-11-04T07:25:17.174Z,97938.31
2022-11-04T07:27:44.266Z,97941.94
2022-11-04T07:30:12.157Z,97943.38
2022-11-04T07:32:39.380Z,97948.69
2022-11-04T07:35:07.448Z,97949.53
2022-11-04T07:37:34.677Z,97955.41
2022-11-04T07:40:01.893Z,97955.69
2022-11-04T07:42:29.720Z,97964.03
2022-11-04T07:44:57.583Z,97957.34
2022-11-04T07:47:50.812Z,97951.50
2022-11-04T07:50:18.992Z,97942.31
2022-11-04T07:52:47.977Z,97942.88
2022-11-04T07:55:18.448Z,97948.72
2022-11-04T07:57:47.824Z,97935.56
2022-11-04T08:00:17.173Z,97938.38
2022-11-04T08:02:46.735Z,97930.31
2022-11-04T08:05:14.619Z,97919.41
2022-11-04T08:07:42.231Z,97938.25
2022-11-04T08:10:10.214Z,97939.84
2022-11-04T08:12:38.240Z,97931.97
2022-11-04T08:15:07.707Z,97935.25
2022-11-04T08:17:34.928Z,97938.69
2022-11-04T08:20:02.111Z,97937.56
2022-11-04T08:22:32.983Z,97944.53
2022-11-04T08:25:00.552Z,97949.75
2022-11-04T08:27:27.701Z,97938.94
2022-11-04T08:29:54.874Z,97949.75
2022-11-04T08:32:21.997Z,97955.84
2022-11-04T08:34:49.360Z,97964.69
2022-11-04T08:37:17.491Z,97959.34
2022-11-04T08:39:44.991Z,97966.66
2022-11-04T08:42:12.329Z,97951.66
2022-11-04T08:44:40.100Z,97959.41
2022-11-04T08:47:07.259Z,97949.63
2022-11-04T08:49:39.987Z,97939.16
2022-11-04T08:52:07.254Z,97940.31
2022-11-04T08:54:34.595Z,97941.50
2022-11-04T08:57:02.041Z,97946.59
2022-11-04T08:59:29.208Z,97957.38
2022-11-04T09:01:56.502Z,97960.19
2022-11-04T09:04:24.036Z,97966.25
2022-11-04T09:06:52.153Z,97968.34
2022-11-04T09:09:20.137Z,97967.06
2022-11-04T09:11:54.062Z,97972.81
2022-11-04T09:14:23.690Z,97971.91
2022-11-04T09:16:50.989Z,97984.75
2022-11-04T09:19:18.166Z,97979.56
2022-11-04T09:21:45.380Z,97981.06
2022-11-04T09:24:12.595Z,97984.84
2022-11-04T09:26:39.837Z,97987.13
2022-11-04T09:29:09.619Z,97994.16
2022-11-04T09:31:37.522Z,97985.22
2022-11-04T09:34:04.725Z,97974.69
2022-11-04T09:36:32.088Z,97986.84
2022-11-04T09:38:59.310Z,97991.00
2022-11-04T09:41:56.696Z,97979.00
2022-11-04T09:45:07.339Z,97982.41
2022-11-04T09:47:34.950Z,97979.25
2022-11-04T09:50:03.891Z,97984.53
2022-11-04T09:52:44.456Z,97967.50
2022-11-04T09:55:22.835Z,97963.25
2022-11-04T09:57:58.773Z,97967.91
2022-11-04T10:00:38.401Z,97959.13
2022-11-04T10:03:09.258Z,97967.09
2022-11-04T10:06:01.249Z,97972.31
2022-11-04T10:09:02.464Z,97963.19
2022-11-04T10:11:53.781Z,97965.06
2022-11-04T10:14:36.404Z,97966.59
2022-11-04T10:17:45.560Z,97966.09
2022-11-04T10:20:47.372Z,97952.03
2022-11-04T10:23:34.894Z,97961.44
2022-11-04T10:26:57.611Z,97951.09
2022-11-04T10:44:38.362Z,97933.31
2022-11-04T10:47:40.360Z,97926.81
2022-11-04T10:50:38.570Z,97934.84
2022-11-04T10:53:19.710Z,97922.03
2022-11-04T10:56:29.062Z,97932.22
2022-11-04T10:59:27.321Z,97932.63
2022-11-04T11:01:58.772Z,97928.69
2022-11-04T11:04:38.357Z,97935.38
2022-11-04T11:07:10.573Z,97935.03
2022-11-04T11:09:40.782Z,97917.94
2022-11-04T11:12:48.687Z,97918.44
2022-11-04T11:15:32.994Z,97920.13
2022-11-04T11:18:21.763Z,97913.94
2022-11-04T11:21:15.971Z,97921.84
2022-11-04T11:23:48.359Z,97914.69
2022-11-04T11:26:31.556Z,97918.03
2022-11-04T11:29:07.258Z,97917.44
2022-11-04T11:31:40.517Z,97906.28
2022-11-04T11:34:26.541Z,97898.28
2022-11-04T11:36:56.973Z,97894.97
2022-11-04T11:39:37.276Z,97891.97
2022-11-04T11:42:16.184Z,97891.88
2022-11-04T11:45:17.531Z,97889.78
2022-11-04T11:47:46.856Z,97891.53
2022-11-04T11:50:24.549Z,97895.44
2022-11-04T11:52:52.870Z,97896.53
2022-11-04T11:55:34.680Z,97897.59
2022-11-04T12:01:44.117Z,97888.88
2022-11-04T12:11:06.092Z,97888.34
2022-11-04T12:13:57.992Z,97886.06
2022-11-04T12:17:07.728Z,97885.06
2022-11-04T12:19:53.550Z,97895.56
2022-11-04T12:23:08.204Z,97888.06
2022-11-04T12:26:33.307Z,97893.72
2022-11-04T12:29:54.544Z,97897.97
2022-11-04T12:32:59.457Z,97898.19
2022-11-04T12:36:07.822Z,97894.31
2022-11-04T12:39:37.407Z,97897.44
2022-11-04T12:42:51.941Z,97905.44
2022-11-04T12:45:56.611Z,97902.09
2022-11-04T12:49:07.360Z,97915.19
2022-11-04T12:51:57.614Z,97903.13
2022-11-04T12:55:43.823Z,97900.63
2022-11-04T12:59:20.745Z,97907.59
2022-11-04T13:02:22.704Z,97904.97
2022-11-04T13:05:05.562Z,97911.91
2022-11-04T13:08:04.026Z,97915.56
2022-11-04T13:10:42.798Z,97915.38
2022-11-04T13:13:15.790Z,97916.47
2022-11-04T13:15:56.602Z,97920.94
2022-11-04T13:18:30.799Z,97920.78
2022-11-04T13:21:17.301Z,97920.03
2022-11-04T13:24:30.845Z,97919.69
2022-11-04T13:27:19.759Z,97911.19
2022-11-04T13:29:52.268Z,97914.94
2022-11-04T13:32:42.406Z,97914.44
2022-11-04T13:35:58.599Z,97915.84
2022-11-04T13:38:37.323Z,97914.53
2022-11-04T13:41:21.371Z,97912.38
2022-11-04T13:44:28.591Z,97913.72
2022-11-04T13:47:03.513Z,97910.16
2022-11-04T13:49:37.169Z,97926.31
2022-11-04T13:52:13.470Z,97923.47
2022-11-04T13:55:07.004Z,97927.91
2022-11-04T13:58:07.164Z,97927.16
2022-11-04T14:00:37.500Z,97934.06
2022-11-04T14:03:23.018Z,97937.06
2022-11-04T14:05:59.362Z,97928.31
2022-11-04T14:08:26.734Z,97932.31
2022-11-04T14:10:53.776Z,97939.91
2022-11-04T14:13:29.773Z,97939.22
2022-11-04T14:16:10.818Z,97941.94
2022-11-04T14:18:48.295Z,97941.00
2022-11-04T14:21:22.228Z,97940.28
2022-11-04T14:24:03.191Z,97947.25
2022-11-04T14:26:48.459Z,97938.22
2022-11-04T14:29:34.126Z,97947.88
2022-11-04T14:32:01.625Z,97949.78
2022-11-04T14:34:37.745Z,97966.28
2022-11-04T14:37:26.637Z,97972.34
2022-11-04T14:40:00.838Z,97971.03
2022-11-04T14:42:56.652Z,97977.16
2022-11-04T14:45:39.817Z,97978.50
2022-11-04T14:48:20.310Z,97979.78
2022-11-04T14:50:54.120Z,97986.59
2022-11-04T14:53:37.604Z,97985.97
2022-11-04T14:56:24.575Z,97987.75
2022-11-04T14:59:35.074Z,97990.31
2022-11-04T15:02:31.768Z,97994.25
2022-11-04T15:05:46.900Z,97997.88
2022-11-04T15:08:44.597Z,97994.59
2022-11-04T15:11:45.508Z,97994.25
2022-11-04T15:14:27.047Z,98003.06
2022-11-04T15:17:02.137Z,98005.34
2022-11-04T15:20:01.739Z,97993.84
2022-11-04T15:22:36.144Z,97997.53
2022-11-04T15:25:12.941Z,97989.91
2022-11-04T15:27:41.816Z,98004.41
2022-11-04T15:30:28.308Z,97993.03
2022-11-04T15:33:01.064Z,97995.63
2022-11-04T15:35:43.357Z,97988.28
2022-11-04T15:38:13.569Z,97999.94
2022-11-04T15:40:43.026Z,98002.13
2022-11-04T15:43:11.764Z,98005.72
2022-11-04T15:45:51.986Z,98012.25
2022-11-04T15:48:37.861Z,98019.25
2022-11-04T15:51:25.575Z,98010.34
2022-11-04T15:54:16.865Z,98014.31
2022-11-04T15:56:57.724Z,98019.31
2022-11-04T15:59:37.901Z,98029.41
2022-11-04T16:02:30.803Z,98030.53
2022-11-04T16:05:10.620Z,98038.09
2022-11-04T16:07:47.942Z,98039.56
2022-11-04T16:10:36.776Z,98038.78
2022-11-04T16:13:16.571Z,98046.84
2022-11-04T16:16:01.894Z,98049.03
2022-11-04T16:18:43.988Z,98051.53
2022-11-04T16:21:24.671Z,98053.97
2022-11-04T16:24:10.769Z,98053.44
2022-11-04T16:26:46.276Z,98056.78
2022-11-04T16:29:47.734Z,98068.31
2022-11-04T16:32:27.067Z,98068.50
2022-11-04T16:35:01.339Z,98072.75
2022-11-04T16:37:30.067Z,98076.97
2022-11-04T16:39:58.099Z,98071.94
2022-11-04T16:42:27.653Z,98073.53
2022-11-04T16:45:05.789Z,98078.47
2022-11-04T16:47:38.995Z,98078.50
2022-11-04T16:50:16.236Z,98083.97
2022-11-04T16:52:47.148Z,98094.25
2022-11-04T16:55:15.716Z,98098.16
2022-11-04T16:57:46.773Z,98094.78
2022-11-04T17:00:23.230Z,98103.72
2022-11-04T17:02:53.005Z,98111.50
2022-11-04T17:05:21.183Z,98110.41
2022-11-04T17:07:54.559Z,98101.78
2022-11-04T17:10:28.530Z,98111.50
2022-11-04T17:12:56.226Z,98105.94
2022-11-04T17:15:26.055Z,98113.44
2022-11-04T17:17:53.332Z,98127.06
2022-11-04T17:20:21.161Z,98118.69
2022-11-04T17:22:54.595Z,98126.53
2022-11-04T17:25:32.801Z,98136.28
2022-11-04T17:28:40.482Z,98136.00
2022-11-04T17:31:56.689Z,98134.84
2022-11-04T17:34:30.409Z,98138.47
2022-11-04T17:36:58.298Z,98146.31
2022-11-04T17:39:28.027Z,98148.78
2022-11-04T17:42:23.736Z,98153.28
2022-11-04T17:44:51.747Z,98148.84
2022-11-04T17:47:23.302Z,98156.69
2022-11-04T17:49:53.988Z,98161.13
2022-11-04T17:52:29.693Z,98162.81
2022-11-04T17:55:13.882Z,98160.00
2022-11-04T17:57:49.399Z,98166.13
2022-11-04T18:00:18.277Z,98165.84
2022-11-04T18:03:02.016Z,98166.16
2022-11-04T18:05:30.261Z,98175.59
2022-11-04T18:08:02.151Z,98181.47
2022-11-04T18:10:30.217Z,98185.06
2022-11-04T18:13:00.821Z,98186.19
2022-11-04T18:15:47.086Z,98194.28
2022-11-04T18:19:12.690Z,98190.63
2022-11-04T18:22:01.232Z,98195.97
2022-11-04T18:24:33.368Z,98204.59
2022-11-04T18:27:04.335Z,98202.06
2022-11-04T18:29:35.295Z,98203.47
2022-11-04T18:32:04.144Z,98202.63
2022-11-04T18:34:31.539Z,98199.28
2022-11-04T18:37:00.204Z,98203.47
2022-11-04T18:39:27.821Z,98207.94
2022-11-04T18:41:55.319Z,98214.06
2022-11-04T18:44:28.803Z,98224.66
2022-11-04T18:46:56.423Z,98230.22
2022-11-04T18:49:24.379Z,98223.81
2022-11-04T18:51:51.909Z,98223.81
2022-11-04T18:54:21.327Z,98226.88
2022-11-04T18:56:49.752Z,98238.00
2022-11-04T18:59:18.072Z,98234.13
2022-11-04T19:01:45.995Z,98249.16
2022-11-04T19:04:13.907Z,98240.25
2022-11-04T19:06:45.497Z,98248.06
2022-11-04T19:12:23.606Z,98258.91
2022-11-04T19:14:53.427Z,98256.97
2022-11-04T19:17:22.682Z,98262.84
2022-11-04T19:19:51.370Z,98263.66
2022-11-04T19:22:18.794Z,98258.66
2022-11-04T19:24:46.892Z,98268.09
2022-11-04T19:27:15.673Z,98277.03
2022-11-04T19:29:44.098Z,98275.34
2022-11-04T19:32:14.305Z,98276.72
2022-11-04T19:34:48.492Z,98283.38
2022-11-04T19:37:33.439Z,98289.81
2022-11-04T19:40:00.738Z,98303.19
2022-11-04T19:42:47.067Z,98299.06
2022-11-04T19:45:14.591Z,98306.50
2022-11-04T19:47:41.744Z,98315.38
2022-11-04T19:50:09.883Z,98308.19
2022-11-04T19:52:37.033Z,98311.84
2022-11-04T19:55:04.741Z,98312.38
2022-11-04T19:57:31.874Z,98317.34
2022-11-04T20:00:00.135Z,98325.72
2022-11-04T20:02:27.391Z,98345.47
2022-11-04T20:04:54.838Z,98332.66
2022-11-04T20:07:21.984Z,98337.25
2022-11-04T20:09:49.284Z,98341.13
2022-11-04T20:12:35.087Z,98337.69
2022-11-04T20:15:02.312Z,98353.44
2022-11-04T20:17:33.299Z,98355.19
2022-11-04T20:20:00.443Z,98363.28
2022-11-04T20:22:27.681Z,98370.00
2022-11-04T20:24:54.780Z,98366.88
2022-11-04T20:27:22.024Z,98373.34
2022-11-04T20:29:49.258Z,98374.41
2022-11-04T20:32:16.817Z,98377.81
2022-11-04T20:34:44.179Z,98380.91
2022-11-04T20:37:12.456Z,98382.31
2022-11-04T20:39:39.826Z,98385.94
2022-11-04T20:42:07.396Z,98385.09
2022-11-04T20:44:34.604Z,98390.94
2022-11-04T20:47:02.210Z,98397.06
2022-11-04T20:49:29.800Z,98397.34
2022-11-04T20:51:57.068Z,98393.13
2022-11-04T20:54:24.958Z,98396.75
2022-11-04T20:56:53.141Z,98394.31
2022-11-04T20:59:20.357Z,98409.56
2022-11-04T21:01:48.783Z,98412.53
2022-11-04T21:04:19.929Z,98412.97
2022-11-04T21:06:49.845Z,98404.22
2022-11-04T21:09:21.209Z,98420.78
2022-11-04T21:11:48.932Z,98417.63
2022-11-04T21:14:19.678Z,98419.88
2022-11-04T21:16:48.500Z,98424.47
2022-11-04T21:19:16.563Z,98427.06
2022-11-04T21:21:46.712Z,98421.66
2022-11-04T21:24:16.449Z,98433.19
2022-11-04T21:26:45.614Z,98433.53
2022-11-04T21:29:18.252Z,98429.34
2022-11-04T21:31:47.827Z,98435.75
2022-11-04T21:34:15.506Z,98440.03
2022-11-04T21:36:43.109Z,98448.75
2022-11-04T21:39:11.019Z,98447.00
2022-11-04T21:41:39.164Z,98449.09
2022-11-04T21:44:10.219Z,98453.06
2022-11-04T21:46:38.045Z,98447.06
2022-11-04T21:49:06.026Z,98457.72
2022-11-04T21:51:34.624Z,98456.78
2022-11-04T21:54:07.076Z,98454.97
2022-11-04T21:56:34.668Z,98451.53
2022-11-04T21:59:03.484Z,98454.41
2022-11-04T22:01:32.417Z,98461.22
2022-11-04T22:04:02.250Z,98461.22
2022-11-04T22:06:35.303Z,98458.78
2022-11-04T22:09:09.024Z,98457.69
2022-11-04T22:11:39.287Z,98461.59
2022-11-04T22:14:08.641Z,98466.06
2022-11-04T22:16:39.175Z,98468.91
2022-11-04T22:19:10.759Z,98468.59
2022-11-04T22:21:45.196Z,98468.00
2022-11-04T22:24:17.306Z,98471.13
2022-11-04T22:26:44.738Z,98477.53
2022-11-04T22:29:11.871Z,98473.94
2022-11-04T22:31:42.878Z,98480.66
2022-11-04T22:34:10.475Z,98477.19
2022-11-04T22:36:39.606Z,98481.63
2022-11-04T22:39:10.554Z,98481.34
2022-11-04T22:41:40.682Z,98480.03
2022-11-04T22:44:08.899Z,98484.88
2022-11-04T22:46:36.157Z,98498.34
2022-11-04T22:49:03.757Z,98493.84
2022-11-04T22:51:32.370Z,98494.31
2022-11-04T22:54:06.425Z,98497.72
2022-11-04T22:56:35.511Z,98490.22
2022-11-04T22:59:03.856Z,98499.13
2022-11-04T23:01:33.736Z,98496.06
2022-11-04T23:04:01.471Z,98501.19
2022-11-04T23:06:28.839Z,98489.19
2022-11-04T23:09:00.073Z,98496.53
2022-11-04T23:11:48.899Z,98493.06
2022-11-04T23:14:40.958Z,98497.19
2022-11-04T23:17:42.244Z,98505.63
2022-11-04T23:20:15.769Z,98512.91
2022-11-04T23:23:01.796Z,98501.94
2022-11-04T23:25:28.980Z,98505.88
2022-11-04T23:28:15.049Z,98503.09
2022-11-04T23:30:47.087Z,98509.72
2022-11-04T23:33:15.728Z,98514.78
2022-11-04T23:36:08.037Z,98517.59
2022-11-04T23:38:35.374Z,98519.28
2022-11-04T23:41:26.086Z,98515.28
2022-11-04T23:43:53.335Z,98518.06
2022-11-04T23:46:43.141Z,98517.44
2022-11-04T23:49:50.545Z,98525.22
2022-11-04T23:52:36.627Z,98526.00
2022-11-04T23:55:22.981Z,98524.63
2022-11-04T23:58:08.903Z,98529.50
